EDLV/NRN METAR and TAF weather

Enter ICAO airport designator
Station Type Date Time Source
EDLV METAR 2018/07/20 14:20 UTC NOAA

EDLV 201420Z 29008KT 220V010 CAVOK 27/09 Q1012


Station Type Date Time Source
EDLV Decoded METAR 2018/07/20 14:20 UTC NOAA

Niederrhein, Germany (EDLV) 51-36-09N 006-08-32E
Jul 20, 2018 - 10:20 AM EDT / 2018.07.20 1420 UTC
Wind: from the WNW (290 degrees) at 9 MPH (8 KT) (direction variable):0
Visibility: greater than 7 mile(s):0
Temperature: 80 F (27 C)
Dew Point: 48 F (9 C)
Relative Humidity: 32%
Pressure (altimeter): 29.88 in. Hg (1012 hPa)
ob: EDLV 201420Z 29008KT 220V010 CAVOK 27/09 Q1012
cycle: 14

Station Type Date Time Source
EDLV TAF 2018/07/20 12:27 UTC NOAA

TAF EDLV 201100Z 2012/2112 31005KT CAVOK
TEMPO 2012/2112 VRB03KT


Example: see airport list